Time;durP1;ratioP1;P1;durP2;ratioP2;P2;SDS_P1;SDS_P2;PMS_P1;PMS_P2;Temp;Humidity;BMP_temperature;BMP_pressure;BME280_temperature;BME280_humidity;BME280_pressure;Samples;Min_cycle;Max_cycle;Signal;HPM_P1;HPM_P2
2022/07/02 00:00:09;;;;;;;68.22;37.30;;;;;;;;;;6207005;28;25074;-80
2022/07/02 00:03:10;;;;;;;68.20;33.97;;;;;;;;;;6201455;28;20133;-80
2022/07/02 00:06:12;;;;;;;70.28;35.55;;;;;;;;;;6199874;28;20148;-80
2022/07/02 00:09:13;;;;;;;65.07;34.17;;;;;;;;;;6201959;28;20061;-79
2022/07/02 00:12:13;;;;;;;65.80;35.37;;;;;;;;;;6205306;28;20106;-79
2022/07/02 00:15:14;;;;;;;66.18;34.60;;;;;;;;;;6197821;28;20014;-80
2022/07/02 00:18:15;;;;;;;62.27;34.53;;;;;;;;;;6206252;28;20046;-79
2022/07/02 00:21:15;;;;;;;76.45;40.55;;;;;;;;;;6206900;28;20029;-79
2022/07/02 00:24:15;;;;;;;75.43;35.67;;;;;;;;;;6200920;28;20190;-80
2022/07/02 00:27:18;;;;;;;79.07;38.70;;;;;;;;;;6196715;28;20560;-80
2022/07/02 00:30:18;;;;;;;69.63;36.83;;;;;;;;;;6196687;28;20032;-80
2022/07/02 00:33:19;;;;;;;77.83;38.57;;;;;;;;;;6204564;28;20417;-80
2022/07/02 00:36:23;;;;;;;80.67;35.90;;;;;;;;;;6203065;28;20037;-79
2022/07/02 00:39:23;;;;;;;69.47;36.80;;;;;;;;;;6208599;28;20044;-79
2022/07/02 00:42:26;;;;;;;71.07;39.10;;;;;;;;;;6205280;28;25063;-79
2022/07/02 00:45:27;;;;;;;72.22;35.70;;;;;;;;;;6210098;28;24859;-79
2022/07/02 00:48:27;;;;;;;84.40;38.03;;;;;;;;;;6193539;28;20113;-79
2022/07/02 00:51:28;;;;;;;75.20;38.50;;;;;;;;;;6196952;28;20033;-79
2022/07/02 00:54:28;;;;;;;76.17;39.57;;;;;;;;;;6197396;28;20029;-79
2022/07/02 00:57:30;;;;;;;67.40;29.20;;;;;;;;;;6214524;28;20083;-79
2022/07/02 01:00:31;;;;;;;73.88;36.85;;;;;;;;;;6203591;28;20027;-79
2022/07/02 01:03:32;;;;;;;69.45;38.28;;;;;;;;;;6201912;28;20032;-78
2022/07/02 01:06:33;;;;;;;69.68;28.70;;;;;;;;;;6198254;28;20093;-77
2022/07/02 01:12:56;;;;;;;69.13;36.58;;;;;;;;;;6193681;28;20030;-78
2022/07/02 01:15:56;;;;;;;80.83;35.90;;;;;;;;;;6194187;28;20550;-78
2022/07/02 01:18:56;;;;;;;66.70;32.92;;;;;;;;;;6197669;28;20241;-77
2022/07/02 01:22:12;;;;;;;67.60;36.30;;;;;;;;;;6205593;28;20285;-78
2022/07/02 01:25:13;;;;;;;62.92;35.10;;;;;;;;;;6194696;28;25071;-77
2022/07/02 01:28:13;;;;;;;61.83;32.83;;;;;;;;;;6193598;28;25063;-78
2022/07/02 01:31:13;;;;;;;64.80;36.17;;;;;;;;;;6196355;28;25106;-78
2022/07/02 01:34:13;;;;;;;63.50;34.55;;;;;;;;;;6196889;28;25101;-77
2022/07/02 01:37:14;;;;;;;56.13;31.40;;;;;;;;;;6200523;28;25102;-77
2022/07/02 01:40:14;;;;;;;63.50;32.90;;;;;;;;;;6201457;28;25066;-77
2022/07/02 01:43:15;;;;;;;59.47;32.43;;;;;;;;;;6190561;28;25056;-78
2022/07/02 01:46:15;;;;;;;64.60;34.27;;;;;;;;;;6201238;28;25069;-77
2022/07/02 01:49:15;;;;;;;61.53;37.17;;;;;;;;;;6192498;28;25180;-77
2022/07/02 01:52:15;;;;;;;60.35;31.25;;;;;;;;;;6190994;28;25121;-77
2022/07/02 01:55:16;;;;;;;57.20;31.87;;;;;;;;;;6201902;28;25145;-78
2022/07/02 01:58:16;;;;;;;59.45;31.95;;;;;;;;;;6207985;28;25085;-77
2022/07/02 02:01:16;;;;;;;54.50;29.87;;;;;;;;;;6192254;28;25092;-77
2022/07/02 02:04:17;;;;;;;53.33;30.37;;;;;;;;;;6192702;28;25067;-78
2022/07/02 02:07:17;;;;;;;53.83;27.43;;;;;;;;;;6205098;28;25141;-77
2022/07/02 02:10:17;;;;;;;56.63;29.13;;;;;;;;;;6201078;28;25066;-78
2022/07/02 02:13:17;;;;;;;53.20;31.92;;;;;;;;;;6197080;28;25080;-77
2022/07/02 02:16:17;;;;;;;55.07;28.30;;;;;;;;;;6194516;28;25066;-77
2022/07/02 02:19:18;;;;;;;60.83;32.60;;;;;;;;;;6196496;28;25058;-78
2022/07/02 02:22:18;;;;;;;62.08;32.13;;;;;;;;;;6201880;28;25108;-77
2022/07/02 02:25:18;;;;;;;54.00;30.95;;;;;;;;;;6217588;28;25103;-77
2022/07/02 02:28:18;;;;;;;62.97;33.60;;;;;;;;;;6189869;28;25115;-77
2022/07/02 02:31:19;;;;;;;65.65;25.25;;;;;;;;;;6196335;28;25115;-77
2022/07/02 02:34:19;;;;;;;69.03;32.67;;;;;;;;;;6205160;28;25094;-77
2022/07/02 02:37:19;;;;;;;74.55;36.45;;;;;;;;;;6199649;28;25060;-77
2022/07/02 02:40:19;;;;;;;71.38;38.35;;;;;;;;;;6199203;28;25518;-78
2022/07/02 02:43:20;;;;;;;73.47;37.67;;;;;;;;;;6204369;28;25077;-78
2022/07/02 02:46:20;;;;;;;77.03;38.05;;;;;;;;;;6217802;28;25062;-78
2022/07/02 02:49:20;;;;;;;75.13;38.65;;;;;;;;;;6206880;28;25125;-78
2022/07/02 02:52:20;;;;;;;67.40;34.57;;;;;;;;;;6199699;28;25107;-80
2022/07/02 02:55:20;;;;;;;72.70;37.88;;;;;;;;;;6206380;28;25110;-78
2022/07/02 02:58:20;;;;;;;72.33;36.27;;;;;;;;;;6206510;28;25101;-78
2022/07/02 03:01:21;;;;;;;70.47;34.67;;;;;;;;;;6205790;28;25106;-79
2022/07/02 03:04:21;;;;;;;66.43;33.88;;;;;;;;;;6195048;28;25060;-79
2022/07/02 03:07:21;;;;;;;71.43;36.25;;;;;;;;;;6195749;28;25135;-79
2022/07/02 03:10:21;;;;;;;71.78;34.97;;;;;;;;;;6208924;28;25117;-78
2022/07/02 03:13:21;;;;;;;73.75;35.85;;;;;;;;;;6200494;28;25106;-79
2022/07/02 03:16:22;;;;;;;66.43;33.13;;;;;;;;;;6194477;28;25073;-79
2022/07/02 03:19:22;;;;;;;63.00;34.17;;;;;;;;;;6206591;28;25075;-78
2022/07/02 03:22:22;;;;;;;60.45;33.70;;;;;;;;;;6203445;28;25180;-78
2022/07/02 03:25:22;;;;;;;63.63;31.42;;;;;;;;;;6197403;28;25217;-78
2022/07/02 03:28:23;;;;;;;60.35;31.30;;;;;;;;;;6212704;28;25070;-78
2022/07/02 03:31:23;;;;;;;61.97;33.17;;;;;;;;;;6199574;28;25060;-79
2022/07/02 03:34:23;;;;;;;69.50;34.75;;;;;;;;;;6206142;28;25143;-78
2022/07/02 03:37:28;;;;;;;62.50;33.13;;;;;;;;;;6205013;28;25072;-79
2022/07/02 03:40:28;;;;;;;65.10;33.45;;;;;;;;;;6196856;28;25135;-78
2022/07/02 03:43:28;;;;;;;57.10;31.20;;;;;;;;;;6218276;28;25047;-79
2022/07/02 03:46:28;;;;;;;64.43;35.10;;;;;;;;;;6200321;28;25111;-78
2022/07/02 03:49:28;;;;;;;60.38;27.77;;;;;;;;;;6197549;28;25101;-78
2022/07/02 03:52:29;;;;;;;45.53;21.90;;;;;;;;;;6203946;28;25063;-79
2022/07/02 03:55:29;;;;;;;58.33;29.02;;;;;;;;;;6205994;28;25086;-79
2022/07/02 03:58:31;;;;;;;55.95;27.55;;;;;;;;;;6207911;28;25066;-79
2022/07/02 04:01:31;;;;;;;51.28;28.88;;;;;;;;;;6216056;28;25140;-79
2022/07/02 04:04:31;;;;;;;54.63;27.63;;;;;;;;;;6199767;28;25074;-80
2022/07/02 04:07:31;;;;;;;52.42;28.15;;;;;;;;;;6211698;28;25099;-79
2022/07/02 04:10:32;;;;;;;52.03;28.92;;;;;;;;;;6215489;28;25061;-79
2022/07/02 04:13:32;;;;;;;46.63;27.33;;;;;;;;;;6191901;28;25087;-79
2022/07/02 04:16:32;;;;;;;49.43;26.43;;;;;;;;;;6188330;28;25070;-79
2022/07/02 04:19:32;;;;;;;51.80;31.87;;;;;;;;;;6200735;28;25052;-79
2022/07/02 04:22:33;;;;;;;47.50;29.88;;;;;;;;;;6187683;28;25052;-79
2022/07/02 04:25:33;;;;;;;44.80;25.47;;;;;;;;;;6201823;28;25161;-80
2022/07/02 04:28:33;;;;;;;49.72;27.65;;;;;;;;;;6211395;28;20875;-80
2022/07/02 04:31:33;;;;;;;53.72;26.98;;;;;;;;;;6212542;28;20121;-80
2022/07/02 04:34:33;;;;;;;49.10;26.43;;;;;;;;;;6199211;28;25066;-80
2022/07/02 04:37:34;;;;;;;48.10;26.13;;;;;;;;;;6198151;28;25058;-80
2022/07/02 04:40:34;;;;;;;52.20;27.50;;;;;;;;;;6213627;28;20409;-80
2022/07/02 04:43:34;;;;;;;51.47;28.77;;;;;;;;;;6207335;28;20318;-81
2022/07/02 04:46:34;;;;;;;52.50;29.83;;;;;;;;;;6202205;28;20612;-80
2022/07/02 04:49:35;;;;;;;51.07;28.93;;;;;;;;;;6199951;28;20100;-80
2022/07/02 04:52:35;;;;;;;54.60;30.10;;;;;;;;;;6199406;28;20014;-81
2022/07/02 04:55:35;;;;;;;54.65;26.13;;;;;;;;;;6202513;28;20026;-81
2022/07/02 04:58:35;;;;;;;52.97;26.63;;;;;;;;;;6188017;28;20184;-81
2022/07/02 05:01:36;;;;;;;48.87;26.60;;;;;;;;;;6200146;28;20041;-82
2022/07/02 05:04:36;;;;;;;47.40;24.90;;;;;;;;;;6203692;28;20010;-82
2022/07/02 05:07:36;;;;;;;50.30;30.53;;;;;;;;;;6198709;28;20495;-81
2022/07/02 05:10:36;;;;;;;60.77;30.20;;;;;;;;;;6206143;28;20029;-82
2022/07/02 05:13:36;;;;;;;47.70;30.67;;;;;;;;;;6204140;28;20562;-82
2022/07/02 05:16:37;;;;;;;53.53;32.22;;;;;;;;;;6202783;28;20386;-82
2022/07/02 05:19:37;;;;;;;50.20;29.00;;;;;;;;;;6211191;28;20091;-82
2022/07/02 05:22:37;;;;;;;60.13;31.80;;;;;;;;;;6202969;28;20062;-82
2022/07/02 05:25:37;;;;;;;57.30;32.40;;;;;;;;;;6193613;28;20554;-83
2022/07/02 05:28:37;;;;;;;57.90;30.43;;;;;;;;;;6202858;28;20007;-82
2022/07/02 05:31:38;;;;;;;54.03;30.25;;;;;;;;;;6192686;28;20011;-83
2022/07/02 05:34:38;;;;;;;56.22;32.38;;;;;;;;;;6206921;28;20464;-83
2022/07/02 05:37:38;;;;;;;47.30;29.67;;;;;;;;;;6212502;28;20261;-84
2022/07/02 05:40:38;;;;;;;50.27;28.97;;;;;;;;;;6217371;28;20116;-84
2022/07/02 05:43:38;;;;;;;55.10;30.17;;;;;;;;;;6203403;28;20044;-84
2022/07/02 05:46:39;;;;;;;57.23;27.47;;;;;;;;;;6205799;28;20373;-84
2022/07/02 05:49:39;;;;;;;44.13;28.33;;;;;;;;;;6205520;28;20029;-84
2022/07/02 05:52:39;;;;;;;48.90;28.30;;;;;;;;;;6206231;28;20064;-84
2022/07/02 05:55:39;;;;;;;49.80;27.27;;;;;;;;;;6195246;28;20018;-84
2022/07/02 05:58:40;;;;;;;51.10;28.87;;;;;;;;;;6198108;28;20030;-83
2022/07/02 06:01:40;;;;;;;55.27;29.77;;;;;;;;;;6210637;28;20112;-84
2022/07/02 06:04:40;;;;;;;45.90;23.97;;;;;;;;;;6204672;28;20029;-84
2022/07/02 06:07:42;;;;;;;40.13;23.73;;;;;;;;;;6215121;28;20030;-84
2022/07/02 06:10:42;;;;;;;40.17;23.77;;;;;;;;;;6226595;28;20014;-85
2022/07/02 06:13:42;;;;;;;37.13;24.20;;;;;;;;;;6200663;28;20117;-84
2022/07/02 06:16:43;;;;;;;34.13;21.33;;;;;;;;;;6208095;28;20045;-84
2022/07/02 06:19:46;;;;;;;30.70;20.30;;;;;;;;;;6198430;28;20054;-85
2022/07/02 06:22:47;;;;;;;32.58;19.27;;;;;;;;;;6202430;28;20014;-84
2022/07/02 06:25:50;;;;;;;39.40;20.87;;;;;;;;;;6201848;28;20395;-84
2022/07/02 06:28:50;;;;;;;33.15;20.40;;;;;;;;;;6200362;28;20551;-84
2022/07/02 06:31:51;;;;;;;34.97;20.03;;;;;;;;;;6214578;28;20026;-84
2022/07/02 06:34:51;;;;;;;36.17;21.63;;;;;;;;;;6211717;28;20026;-84
2022/07/02 06:37:53;;;;;;;40.97;22.70;;;;;;;;;;6196401;28;20387;-85
2022/07/02 06:40:55;;;;;;;40.25;23.80;;;;;;;;;;6206383;28;20569;-82
2022/07/02 06:43:56;;;;;;;42.75;21.70;;;;;;;;;;6185805;28;20082;-85
2022/07/02 06:46:56;;;;;;;33.03;21.27;;;;;;;;;;6209075;28;20017;-85
2022/07/02 06:49:57;;;;;;;31.57;19.53;;;;;;;;;;6206472;28;20018;-84
2022/07/02 06:52:57;;;;;;;33.17;21.50;;;;;;;;;;6209201;28;20482;-85
2022/07/02 06:55:57;;;;;;;34.50;21.33;;;;;;;;;;6206490;28;20044;-85
2022/07/02 06:58:58;;;;;;;29.17;20.67;;;;;;;;;;6203047;28;20022;-85
2022/07/02 07:01:58;;;;;;;31.43;20.53;;;;;;;;;;6220640;28;20032;-85
2022/07/02 07:04:58;;;;;;;31.57;18.73;;;;;;;;;;6206332;28;20026;-85
2022/07/02 07:07:59;;;;;;;31.00;20.83;;;;;;;;;;6199062;28;20038;-84
2022/07/02 07:10:59;;;;;;;28.10;19.57;;;;;;;;;;6202031;28;20022;-84
2022/07/02 07:13:59;;;;;;;28.07;18.63;;;;;;;;;;6203076;28;20030;-84
2022/07/02 07:17:00;;;;;;;27.17;19.03;;;;;;;;;;6204544;28;20046;-85
2022/07/02 07:20:00;;;;;;;33.57;20.30;;;;;;;;;;6205144;28;20042;-85
2022/07/02 07:23:00;;;;;;;39.80;24.13;;;;;;;;;;6206797;28;20018;-85
2022/07/02 07:26:00;;;;;;;41.67;22.00;;;;;;;;;;6211689;28;20287;-85
2022/07/02 07:29:01;;;;;;;31.97;20.47;;;;;;;;;;6193673;28;20470;-84
2022/07/02 07:32:01;;;;;;;41.80;23.23;;;;;;;;;;6208654;28;20034;-85
2022/07/02 07:35:01;;;;;;;34.70;23.27;;;;;;;;;;6206711;28;20036;-85
2022/07/02 07:38:02;;;;;;;34.13;22.17;;;;;;;;;;6203169;28;20477;-85
2022/07/02 07:41:02;;;;;;;31.43;23.13;;;;;;;;;;6216447;28;20025;-85
2022/07/02 07:44:03;;;;;;;35.13;20.93;;;;;;;;;;6212415;28;20036;-86
2022/07/02 07:47:03;;;;;;;23.77;16.40;;;;;;;;;;6200741;28;20090;-84
2022/07/02 07:50:04;;;;;;;25.87;19.23;;;;;;;;;;6201276;28;20046;-86
2022/07/02 07:53:04;;;;;;;27.63;19.03;;;;;;;;;;6212784;28;20029;-85
2022/07/02 07:56:04;;;;;;;30.30;17.13;;;;;;;;;;6191162;28;20107;-85
2022/07/02 07:59:05;;;;;;;26.43;17.70;;;;;;;;;;6198596;28;20030;-86
2022/07/02 08:02:05;;;;;;;23.70;17.67;;;;;;;;;;6211928;28;20022;-87
2022/07/02 08:05:06;;;;;;;30.73;19.90;;;;;;;;;;6192937;28;20081;-86
2022/07/02 08:08:09;;;;;;;33.87;19.77;;;;;;;;;;6208167;28;20039;-85
2022/07/02 08:11:09;;;;;;;35.97;20.63;;;;;;;;;;6194303;28;20046;-85
2022/07/02 08:14:10;;;;;;;29.50;19.90;;;;;;;;;;6185559;28;20080;-86
2022/07/02 08:17:10;;;;;;;32.70;21.33;;;;;;;;;;6225928;28;20070;-86
2022/07/02 08:20:11;;;;;;;29.87;20.10;;;;;;;;;;6206993;28;20057;-85
2022/07/02 08:23:11;;;;;;;32.13;21.47;;;;;;;;;;6196938;28;20026;-85
2022/07/02 08:26:11;;;;;;;34.40;21.97;;;;;;;;;;6202116;28;20359;-85
2022/07/02 08:29:11;;;;;;;37.20;23.47;;;;;;;;;;6195831;28;20479;-86
2022/07/02 08:32:11;;;;;;;38.60;22.90;;;;;;;;;;6184394;28;20513;-86
2022/07/02 08:35:12;;;;;;;41.70;26.40;;;;;;;;;;6197976;28;20049;-86
2022/07/02 08:38:12;;;;;;;44.77;24.87;;;;;;;;;;6199595;28;20018;-87
2022/07/02 08:41:12;;;;;;;35.47;22.17;;;;;;;;;;6199281;28;20323;-87
2022/07/02 08:44:14;;;;;;;34.43;21.43;;;;;;;;;;6184951;28;20015;-86
2022/07/02 08:47:14;;;;;;;27.10;17.42;;;;;;;;;;6182584;28;20010;-87
2022/07/02 08:50:16;;;;;;;22.20;15.00;;;;;;;;;;6182899;28;20033;-86
2022/07/02 08:53:16;;;;;;;;;;;;;;;;;;6187222;28;20019;-85
2022/07/02 08:56:20;;;;;;;20.57;13.50;;;;;;;;;;6180264;28;19917;-86
2022/07/02 08:59:20;;;;;;;18.42;12.40;;;;;;;;;;6185834;28;20020;-86
2022/07/02 09:02:21;;;;;;;15.33;10.70;;;;;;;;;;6188805;28;20014;-86
2022/07/02 09:05:27;;;;;;;16.83;9.93;;;;;;;;;;6198301;28;20050;-87
2022/07/02 09:08:29;;;;;;;18.05;10.38;;;;;;;;;;6194291;28;20054;-87
2022/07/02 09:11:30;;;;;;;14.23;9.45;;;;;;;;;;6199217;28;20050;-86
2022/07/02 09:14:31;;;;;;;12.85;9.27;;;;;;;;;;6209830;28;20049;-86
2022/07/02 09:17:32;;;;;;;13.63;7.67;;;;;;;;;;6216660;28;20026;-86
2022/07/02 09:20:32;;;;;;;11.57;8.00;;;;;;;;;;6210543;28;20280;-86
2022/07/02 09:23:32;;;;;;;10.50;7.53;;;;;;;;;;6200775;28;20022;-86
2022/07/02 09:26:32;;;;;;;10.60;7.70;;;;;;;;;;6211264;28;20033;-86
2022/07/02 09:29:46;;;;;;;13.87;7.80;;;;;;;;;;6199464;28;20093;-87
2022/07/02 09:32:46;;;;;;;10.43;7.85;;;;;;;;;;6216023;28;20026;-86
2022/07/02 09:35:46;;;;;;;12.37;8.50;;;;;;;;;;6207888;28;20466;-86
2022/07/02 09:38:47;;;;;;;12.60;8.97;;;;;;;;;;6213527;28;20509;-87
2022/07/02 09:41:47;;;;;;;12.52;7.28;;;;;;;;;;6207012;28;20018;-86
2022/07/02 09:44:47;;;;;;;13.67;8.33;;;;;;;;;;6209308;28;20029;-87
2022/07/02 09:47:51;;;;;;;12.53;7.83;;;;;;;;;;6195427;28;20027;-86
2022/07/02 09:50:54;;;;;;;11.40;8.57;;;;;;;;;;6211298;28;20674;-86
2022/07/02 09:53:55;;;;;;;11.27;7.10;;;;;;;;;;6201994;28;20033;-86
2022/07/02 09:56:57;;;;;;;10.00;7.63;;;;;;;;;;6221279;28;20022;-87
2022/07/02 10:00:06;;;;;;;11.68;8.30;;;;;;;;;;6212332;28;20847;-86
2022/07/02 10:03:07;;;;;;;11.98;7.68;;;;;;;;;;6216617;28;20029;-87
2022/07/02 10:06:07;;;;;;;15.50;7.60;;;;;;;;;;6223083;28;20470;-87
2022/07/02 10:09:07;;;;;;;14.60;9.50;;;;;;;;;;6210539;28;20050;-87
2022/07/02 10:12:08;;;;;;;9.93;8.20;;;;;;;;;;6209464;28;20184;-87
2022/07/02 10:15:09;;;;;;;11.83;7.13;;;;;;;;;;6205071;28;20065;-87
2022/07/02 10:18:09;;;;;;;11.55;6.63;;;;;;;;;;6206773;28;20022;-86
2022/07/02 10:21:13;;;;;;;11.97;7.33;;;;;;;;;;6191468;28;20053;-86
2022/07/02 10:24:14;;;;;;;10.75;5.95;;;;;;;;;;6189637;28;20023;-87
2022/07/02 10:27:14;;;;;;;9.97;6.90;;;;;;;;;;6197031;28;20076;-86
2022/07/02 10:30:21;;;;;;;10.03;7.47;;;;;;;;;;6198746;28;20148;-86
2022/07/02 10:33:40;;;;;;;11.98;9.10;;;;;;;;;;6192551;28;20705;-86
2022/07/02 10:36:47;;;;;;;11.40;7.32;;;;;;;;;;6187802;28;20027;-86
2022/07/02 10:39:47;;;;;;;10.23;8.50;;;;;;;;;;6183770;28;20613;-86
2022/07/02 10:42:48;;;;;;;10.52;8.25;;;;;;;;;;6187825;28;20020;-86
2022/07/02 10:45:49;;;;;;;8.85;6.57;;;;;;;;;;6191204;28;20025;-86
2022/07/02 10:48:56;;;;;;;11.13;7.57;;;;;;;;;;6190588;28;20031;-86
2022/07/02 10:51:57;;;;;;;9.60;6.28;;;;;;;;;;6198131;28;20569;-87
2022/07/02 10:54:57;;;;;;;9.02;5.85;;;;;;;;;;6194814;28;20030;-86
2022/07/02 10:57:58;;;;;;;5.75;4.57;;;;;;;;;;6209658;28;20052;-86
2022/07/02 11:01:09;;;;;;;7.57;5.33;;;;;;;;;;6204579;28;20068;-86
2022/07/02 11:04:09;;;;;;;6.32;4.72;;;;;;;;;;6201386;28;20257;-86
2022/07/02 11:07:13;;;;;;;8.73;6.10;;;;;;;;;;6206670;28;20049;-86
2022/07/02 11:10:13;;;;;;;8.48;6.90;;;;;;;;;;6203894;28;20040;-85
2022/07/02 11:13:15;;;;;;;10.27;7.10;;;;;;;;;;6195829;28;20030;-83
2022/07/02 11:16:20;;;;;;;12.25;10.05;;;;;;;;;;6191948;28;20394;-86
2022/07/02 11:19:25;;;;;;;12.68;9.25;;;;;;;;;;6204429;28;20049;-86
2022/07/02 11:22:30;;;;;;;9.60;7.55;;;;;;;;;;6210543;28;20078;-86
2022/07/02 11:25:31;;;;;;;8.93;7.13;;;;;;;;;;6194755;28;20026;-86
2022/07/02 11:28:31;;;;;;;9.10;7.18;;;;;;;;;;6196346;28;20034;-86
2022/07/02 11:31:35;;;;;;;8.63;6.10;;;;;;;;;;6202305;28;20030;-86
2022/07/02 11:34:35;;;;;;;11.95;7.65;;;;;;;;;;6202155;28;20022;-86
2022/07/02 11:37:36;;;;;;;9.73;7.47;;;;;;;;;;6196653;28;20076;-84
2022/07/02 11:40:36;;;;;;;10.33;8.33;;;;;;;;;;6193268;28;20014;-84
2022/07/02 11:43:36;;;;;;;10.63;7.80;;;;;;;;;;6205677;28;20073;-84
2022/07/02 11:46:36;;;;;;;9.30;7.23;;;;;;;;;;6194219;28;20061;-84
2022/07/02 11:49:39;;;;;;;10.70;7.57;;;;;;;;;;6200428;28;20577;-83
2022/07/02 11:52:40;;;;;;;9.88;7.90;;;;;;;;;;6187905;28;20057;-84
2022/07/02 11:55:41;;;;;;;12.32;7.03;;;;;;;;;;6204837;28;20010;-83
2022/07/02 11:58:45;;;;;;;10.30;7.90;;;;;;;;;;6209844;28;20053;-83
2022/07/02 12:01:46;;;;;;;8.48;5.63;;;;;;;;;;6194829;28;20042;-84
2022/07/02 12:04:47;;;;;;;12.57;7.10;;;;;;;;;;6211733;28;20471;-83
2022/07/02 12:07:48;;;;;;;6.88;4.90;;;;;;;;;;6195636;28;20039;-83
2022/07/02 12:10:48;;;;;;;7.53;5.75;;;;;;;;;;6199839;28;20052;-83
2022/07/02 12:13:49;;;;;;;10.20;5.75;;;;;;;;;;6207498;28;20569;-83
2022/07/02 12:16:51;;;;;;;6.90;5.72;;;;;;;;;;6201131;28;20630;-83
2022/07/02 12:19:53;;;;;;;9.35;6.57;;;;;;;;;;6202423;28;20022;-86
2022/07/02 12:22:53;;;;;;;7.72;6.68;;;;;;;;;;6208278;28;20014;-85
2022/07/02 12:25:53;;;;;;;9.97;6.70;;;;;;;;;;6205602;28;20023;-86
2022/07/02 12:32:21;;;;;;;7.75;5.70;;;;;;;;;;6187923;28;20038;-86
2022/07/02 12:35:21;;;;;;;9.13;6.63;;;;;;;;;;6184261;28;20037;-86
2022/07/02 12:38:21;;;;;;;8.37;5.67;;;;;;;;;;6208839;28;20184;-86
2022/07/02 12:41:21;;;;;;;10.50;5.80;;;;;;;;;;6186036;28;20139;-86
2022/07/02 12:44:22;;;;;;;9.43;7.67;;;;;;;;;;6185913;28;20458;-83
2022/07/02 12:47:23;;;;;;;11.55;8.65;;;;;;;;;;6186577;28;20118;-84
2022/07/02 12:50:24;;;;;;;12.65;8.32;;;;;;;;;;6195387;28;20108;-84
2022/07/02 12:53:24;;;;;;;9.30;7.73;;;;;;;;;;6203379;28;20030;-83
2022/07/02 12:56:24;;;;;;;6.00;4.80;;;;;;;;;;6204563;28;20022;-83
2022/07/02 12:59:24;;;;;;;9.13;5.93;;;;;;;;;;6203423;28;20030;-85
2022/07/02 13:02:27;;;;;;;6.20;5.03;;;;;;;;;;6199887;28;20070;-86
2022/07/02 13:05:28;;;;;;;7.63;4.15;;;;;;;;;;6205313;28;20077;-85
2022/07/02 13:08:28;;;;;;;6.00;4.57;;;;;;;;;;6204963;28;20414;-86
2022/07/02 13:11:29;;;;;;;4.10;3.27;;;;;;;;;;6198958;28;20017;-83
2022/07/02 13:14:30;;;;;;;6.65;4.57;;;;;;;;;;6204273;28;20052;-86
2022/07/02 13:17:30;;;;;;;9.10;5.10;;;;;;;;;;6211304;28;20046;-85
2022/07/02 13:20:30;;;;;;;7.03;5.40;;;;;;;;;;6226422;28;20030;-86
2022/07/02 13:23:31;;;;;;;8.50;6.00;;;;;;;;;;6212253;28;20576;-86
2022/07/02 13:26:31;;;;;;;5.50;4.27;;;;;;;;;;6204554;28;20037;-85
2022/07/02 13:29:31;;;;;;;6.60;4.50;;;;;;;;;;6221868;28;20021;-85
2022/07/02 13:32:31;;;;;;;7.77;5.43;;;;;;;;;;6198535;28;20428;-86
2022/07/02 13:35:32;;;;;;;5.67;3.93;;;;;;;;;;6198866;28;20551;-85
2022/07/02 13:38:32;;;;;;;5.40;4.70;;;;;;;;;;6205556;28;20014;-85
2022/07/02 13:41:33;;;;;;;5.73;4.47;;;;;;;;;;6209915;28;20052;-86
2022/07/02 13:44:33;;;;;;;6.75;4.90;;;;;;;;;;6207611;28;20027;-85
2022/07/02 13:47:33;;;;;;;4.00;3.60;;;;;;;;;;6203972;28;20026;-85
2022/07/02 13:50:34;;;;;;;10.43;3.83;;;;;;;;;;6203418;28;20113;-85
2022/07/02 13:53:34;;;;;;;3.33;2.67;;;;;;;;;;6206417;28;20026;-85
2022/07/02 13:56:35;;;;;;;7.30;2.77;;;;;;;;;;6207153;28;20022;-86
2022/07/02 13:59:36;;;;;;;2.80;2.47;;;;;;;;;;6210927;28;20027;-85
2022/07/02 14:02:36;;;;;;;3.13;1.83;;;;;;;;;;6196689;28;20026;-85
2022/07/02 14:05:36;;;;;;;5.20;2.37;;;;;;;;;;6203752;28;20639;-86
2022/07/02 14:08:36;;;;;;;3.37;1.90;;;;;;;;;;6195009;28;20102;-85
2022/07/02 14:11:37;;;;;;;2.00;1.87;;;;;;;;;;6195532;28;20097;-85
2022/07/02 14:14:37;;;;;;;2.37;2.17;;;;;;;;;;6196241;28;20491;-85
2022/07/02 14:17:37;;;;;;;3.10;2.43;;;;;;;;;;6196378;28;20018;-85
2022/07/02 14:20:38;;;;;;;1.90;1.80;;;;;;;;;;6197482;28;20090;-86
2022/07/02 14:23:38;;;;;;;3.03;1.93;;;;;;;;;;6203605;28;20442;-85
2022/07/02 14:26:38;;;;;;;4.17;2.03;;;;;;;;;;6220987;28;20017;-85
2022/07/02 14:29:38;;;;;;;2.37;1.60;;;;;;;;;;6214177;28;20028;-85
2022/07/02 14:32:39;;;;;;;3.40;2.90;;;;;;;;;;6208419;28;20405;-85
2022/07/02 14:35:39;;;;;;;4.73;2.40;;;;;;;;;;6208085;28;20548;-85
2022/07/02 14:38:39;;;;;;;2.30;2.10;;;;;;;;;;6207741;28;20199;-85
2022/07/02 14:41:39;;;;;;;5.23;2.10;;;;;;;;;;6203311;28;20078;-85
2022/07/02 14:44:40;;;;;;;1.77;1.67;;;;;;;;;;6196956;28;20488;-85
2022/07/02 14:47:40;;;;;;;2.50;1.80;;;;;;;;;;6198864;28;20924;-85
2022/07/02 14:50:40;;;;;;;2.70;1.90;;;;;;;;;;6197547;28;20478;-85
2022/07/02 14:53:40;;;;;;;2.93;2.30;;;;;;;;;;6204893;28;20023;-85
2022/07/02 14:56:41;;;;;;;2.17;1.70;;;;;;;;;;6207305;28;20030;-85
2022/07/02 14:59:41;;;;;;;3.50;1.73;;;;;;;;;;6210314;28;20010;-83
2022/07/02 15:02:41;;;;;;;1.60;1.50;;;;;;;;;;6214599;28;20011;-82
2022/07/02 15:05:42;;;;;;;2.90;2.60;;;;;;;;;;6218484;28;20057;-84
2022/07/02 15:08:42;;;;;;;3.93;2.10;;;;;;;;;;6211358;28;20116;-83
2022/07/02 15:11:42;;;;;;;2.20;2.00;;;;;;;;;;6206359;28;20014;-82
2022/07/02 15:18:04;;;;;;;2.90;1.85;;;;;;;;;;6202760;28;20037;-84
2022/07/02 15:21:18;;;;;;;2.25;1.58;;;;;;;;;;6205331;28;20027;-83
2022/07/02 15:24:23;;;;;;;4.47;1.65;;;;;;;;;;6196011;28;20030;-83
2022/07/02 15:27:23;;;;;;;6.32;1.95;;;;;;;;;;6212482;28;20394;-82
2022/07/02 15:30:31;;;;;;;4.67;2.10;;;;;;;;;;6198059;28;20030;-83
2022/07/02 15:33:33;;;;;;;2.63;2.30;;;;;;;;;;6203721;28;20025;-83
2022/07/02 15:36:33;;;;;;;3.08;2.30;;;;;;;;;;6213470;28;20104;-83
2022/07/02 15:39:38;;;;;;;3.42;1.92;;;;;;;;;;6207331;28;20029;-83
2022/07/02 15:42:38;;;;;;;1.98;1.77;;;;;;;;;;6213356;28;20057;-83
2022/07/02 15:45:40;;;;;;;4.93;1.90;;;;;;;;;;6186508;28;20699;-82
2022/07/02 15:48:41;;;;;;;5.25;2.70;;;;;;;;;;6189701;28;20026;-83
2022/07/02 15:51:42;;;;;;;3.05;1.77;;;;;;;;;;6189183;28;20395;-82
2022/07/02 15:54:48;;;;;;;2.30;1.30;;;;;;;;;;6204940;28;20022;-82
2022/07/02 15:57:49;;;;;;;1.52;1.42;;;;;;;;;;6207292;28;20049;-82
2022/07/02 16:00:50;;;;;;;1.15;1.05;;;;;;;;;;6197080;28;20021;-82
2022/07/02 16:03:51;;;;;;;1.13;1.10;;;;;;;;;;6193504;28;20026;-80
2022/07/02 16:06:52;;;;;;;1.95;1.02;;;;;;;;;;6186546;28;20269;-80
2022/07/02 16:09:52;;;;;;;1.38;1.27;;;;;;;;;;6199634;28;20109;-80
2022/07/02 16:12:52;;;;;;;2.23;1.50;;;;;;;;;;6210226;28;20026;-81
2022/07/02 16:15:53;;;;;;;4.93;2.73;;;;;;;;;;6193969;28;20038;-81
2022/07/02 16:18:54;;;;;;;4.32;1.85;;;;;;;;;;6184925;28;20164;-81
2022/07/02 16:21:54;;;;;;;4.97;2.20;;;;;;;;;;6195703;28;20034;-80
2022/07/02 16:24:54;;;;;;;3.73;2.53;;;;;;;;;;6203282;28;20468;-81
2022/07/02 16:27:55;;;;;;;4.38;2.40;;;;;;;;;;6196900;28;20020;-80
2022/07/02 16:30:57;;;;;;;6.33;2.10;;;;;;;;;;6193162;28;20015;-81
2022/07/02 16:34:16;;;;;;;3.60;2.08;;;;;;;;;;6198270;28;20022;-81
2022/07/02 16:37:30;;;;;;;4.07;1.90;;;;;;;;;;6190550;28;20037;-82
2022/07/02 16:40:31;;;;;;;3.38;2.15;;;;;;;;;;6202096;28;20072;-81
2022/07/02 16:43:33;;;;;;;2.95;2.20;;;;;;;;;;6194852;28;20274;-81
2022/07/02 16:46:34;;;;;;;4.05;1.65;;;;;;;;;;6203429;28;20112;-80
2022/07/02 16:49:35;;;;;;;4.30;2.40;;;;;;;;;;6192769;28;20042;-81
2022/07/02 16:52:46;;;;;;;1.98;1.70;;;;;;;;;;6188841;28;20089;-81
2022/07/02 16:55:47;;;;;;;3.70;2.85;;;;;;;;;;6194701;28;20029;-81
2022/07/02 16:58:48;;;;;;;3.65;2.40;;;;;;;;;;6187060;28;20019;-81
2022/07/02 17:01:49;;;;;;;4.17;3.23;;;;;;;;;;6203698;28;20086;-81
2022/07/02 17:04:50;;;;;;;3.70;2.75;;;;;;;;;;6189808;28;20084;-81
2022/07/02 17:07:50;;;;;;;;;;;;;;;;;;6194541;28;20105;-80
2022/07/02 17:14:12;;;;;;;5.80;2.70;;;;;;;;;;6196931;28;20693;-81
2022/07/02 17:17:12;;;;;;;4.93;2.42;;;;;;;;;;6195251;28;20030;-81
2022/07/02 17:20:13;;;;;;;4.17;2.83;;;;;;;;;;6196305;28;20034;-81
2022/07/02 17:23:13;;;;;;;5.00;2.10;;;;;;;;;;6195455;28;20573;-81
2022/07/02 17:26:14;;;;;;;4.83;2.10;;;;;;;;;;6216327;28;20089;-80
2022/07/02 17:29:14;;;;;;;3.63;2.30;;;;;;;;;;6187770;28;20027;-80
2022/07/02 17:32:14;;;;;;;2.40;2.10;;;;;;;;;;6208970;28;20488;-80
2022/07/02 17:35:14;;;;;;;4.00;2.10;;;;;;;;;;6199123;28;20670;-80
2022/07/02 17:38:17;;;;;;;3.53;2.03;;;;;;;;;;6207949;28;20022;-80
2022/07/02 17:41:18;;;;;;;3.17;2.25;;;;;;;;;;6201839;28;20674;-80
2022/07/02 17:44:19;;;;;;;2.95;2.20;;;;;;;;;;6192840;28;20098;-80
2022/07/02 17:47:19;;;;;;;2.03;1.83;;;;;;;;;;6207408;28;20426;-80
2022/07/02 17:50:19;;;;;;;3.67;3.03;;;;;;;;;;6194887;28;20033;-81
2022/07/02 17:53:25;;;;;;;4.97;3.13;;;;;;;;;;6198138;28;20037;-80
2022/07/02 17:56:25;;;;;;;5.72;3.42;;;;;;;;;;6209273;28;20030;-80
2022/07/02 17:59:26;;;;;;;4.77;3.47;;;;;;;;;;6199071;28;20029;-80